Weather at Riam Sejawak Airstrip

Public forecast

Using degrees Celsius for public forecast. Weather courtesy of forecast.io.

Closest aviation weather report (METAR) to Riam Sejawak Airstrip

Closest report is Simanggang Airport, 26.5 nm (49.1 km) NE.

(retrieved 0 seconds ago)

Closest aviation forecast (TAF) to Riam Sejawak Airstrip

Closest forecast is Kuching International Airport, 54.5 nm (100.9 km) NW.

2024/05/28 18:13 (retrieved 0 seconds ago)

TAF WBGG 281700Z 2818/2918 VRB02KT 9999 FEW020 TEMPO 2818/2822 6000 -RA FEW008 SCT018